aviador You're here:

CYXS Decoded Metar

PRINCE GEORGE in BC, CANADA
Report Time2018-05-26 15:00:00
UTC Time2018-05-26 15:37:50
Flight Rules vfr VFR
Wind160° at 05 kt
W.Decomp.*RWY 15: 4.9 kt HW 1 kt LCW
RWY 19: 3.1 kt HW 3.9 kt LCW
RWY 06: 1.0 kt HW 4.9 kt RCW
W.Rank160° ranks 6
Current wind is below 160° avg. (6.2)
Visibility9999 m
Phenomena:N/A
Clouds:N/A
Expected CloudBase > 1,200 ft AGL from Temp-Dew spread
CeilingNone
Temp07°C (ISA -4)
Dew Point04°C (81% RH)
AAT3.9°C
QNH1015 hPa
Density Alt1,900 ft
Elevation2,267 ft
Report Wrong Elevation
Raw Report
CYXS 261500Z AUTO 16005KT 9SM CLR 07/04 A2996 RMK SLP167=

Extra information for CYXS:More info

Metar Taf Metar & Taf Last 4 Metars F.Rules Stats Wind Profile Meteogram Temp Stats Airport Information Weather charts Add Link Nearby VenuesMetar ALERT Operation Metar Decoded Social comments